UAL745 KORD-KSAN
Flight info
| Callsign | UAL745 |
|---|---|
| Flight time | N/A |
| Altitude | 34000 |
| Route | PEKUE PIPPN ROTTN LEFAM Q90 DAAYE PLNDL Q86 TTRUE LUCKI1 |
| Aircraft | B739/M-SDE2E3FGHIRWXY/LB1 |
Departure
| Time | N/A |
|---|---|
| Airport | Chicago O'Hare International Airport (KORD) |
Arrival
| Time | 2026-04-23 02:04 |
|---|---|
| Airport | San Diego International Airport (KSAN) |
| Time | Latitude | Longitude | Altitude | Speed | Heading |
|---|---|---|---|---|---|
| 2026-04-23 00:54 | 36.42922 | -110.33478 | 33779 ft | 393 kts | 246° |
| 2026-04-23 00:55 | 36.40622 | -110.39625 | 33783 ft | 392 kts | 246° |
| 2026-04-23 00:55 | 36.38342 | -110.45705 | 33789 ft | 390 kts | 246° |
| 2026-04-23 00:56 | 36.36051 | -110.51801 | 33785 ft | 389 kts | 246° |
| 2026-04-23 00:56 | 36.33768 | -110.57866 | 33788 ft | 388 kts | 246° |
| 2026-04-23 00:57 | 36.31484 | -110.63922 | 33796 ft | 387 kts | 247° |
| 2026-04-23 00:57 | 36.29203 | -110.69959 | 33789 ft | 386 kts | 246° |
| 2026-04-23 00:58 | 36.26926 | -110.75975 | 33799 ft | 385 kts | 247° |
| 2026-04-23 00:58 | 36.24651 | -110.81972 | 33797 ft | 385 kts | 247° |
| 2026-04-23 00:59 | 36.22385 | -110.87936 | 33802 ft | 385 kts | 247° |
| 2026-04-23 00:59 | 36.20100 | -110.93937 | 33809 ft | 386 kts | 247° |
| 2026-04-23 01:00 | 36.17805 | -110.99953 | 33803 ft | 386 kts | 247° |
| 2026-04-23 01:00 | 36.15502 | -111.05979 | 33808 ft | 386 kts | 247° |
| 2026-04-23 01:01 | 36.13211 | -111.11962 | 33806 ft | 387 kts | 247° |
| 2026-04-23 01:01 | 36.10890 | -111.18010 | 33819 ft | 386 kts | 247° |
| 2026-04-23 01:02 | 36.08596 | -111.23979 | 33806 ft | 387 kts | 247° |
| 2026-04-23 01:02 | 36.06278 | -111.29997 | 33809 ft | 387 kts | 247° |
| 2026-04-23 01:03 | 36.03955 | -111.36018 | 33806 ft | 388 kts | 247° |
| 2026-04-23 01:03 | 36.01625 | -111.42048 | 33799 ft | 389 kts | 247° |
| 2026-04-23 01:04 | 35.99291 | -111.48073 | 33808 ft | 389 kts | 247° |
| 2026-04-23 01:04 | 35.95786 | -111.57104 | 33820 ft | 389 kts | 247° |
| 2026-04-23 01:05 | 35.93455 | -111.63088 | 33823 ft | 390 kts | 247° |
| 2026-04-23 01:05 | 35.91101 | -111.69132 | 33840 ft | 391 kts | 247° |
| 2026-04-23 01:06 | 35.88742 | -111.75176 | 33877 ft | 392 kts | 247° |
| 2026-04-23 01:06 | 35.86375 | -111.81229 | 33934 ft | 392 kts | 247° |
| 2026-04-23 01:07 | 35.83995 | -111.87299 | 33971 ft | 393 kts | 247° |
| 2026-04-23 01:07 | 35.81409 | -111.93249 | 33999 ft | 394 kts | 244° |
| 2026-04-23 01:08 | 35.78723 | -111.99121 | 34007 ft | 393 kts | 244° |
| 2026-04-23 01:08 | 35.76063 | -112.04992 | 34014 ft | 392 kts | 244° |
| 2026-04-23 01:09 | 35.73442 | -112.10800 | 34013 ft | 390 kts | 244° |
| 2026-04-23 01:09 | 35.70750 | -112.16585 | 33995 ft | 389 kts | 244° |
| 2026-04-23 01:10 | 35.68036 | -112.22323 | 33978 ft | 387 kts | 244° |
| 2026-04-23 01:10 | 35.65343 | -112.28031 | 33956 ft | 385 kts | 244° |
| 2026-04-23 01:11 | 35.62670 | -112.33702 | 33945 ft | 384 kts | 244° |
| 2026-04-23 01:11 | 35.59989 | -112.39381 | 33953 ft | 384 kts | 244° |
| 2026-04-23 01:12 | 35.57325 | -112.45082 | 33949 ft | 385 kts | 244° |
| 2026-04-23 01:12 | 35.54661 | -112.50794 | 33943 ft | 386 kts | 244° |
| 2026-04-23 01:13 | 35.51986 | -112.56517 | 33932 ft | 387 kts | 244° |
| 2026-04-23 01:13 | 35.49297 | -112.62256 | 33931 ft | 388 kts | 244° |
| 2026-04-23 01:14 | 35.46617 | -112.67965 | 33920 ft | 389 kts | 244° |
| 2026-04-23 01:14 | 35.43910 | -112.73723 | 33924 ft | 389 kts | 244° |
| 2026-04-23 01:15 | 35.41197 | -112.79482 | 33926 ft | 390 kts | 244° |
| 2026-04-23 01:15 | 35.38475 | -112.85253 | 33926 ft | 391 kts | 244° |
| 2026-04-23 01:16 | 35.35746 | -112.91027 | 33929 ft | 391 kts | 244° |
| 2026-04-23 01:16 | 35.33034 | -112.96756 | 33935 ft | 391 kts | 244° |
| 2026-04-23 01:17 | 35.30306 | -113.02510 | 33925 ft | 390 kts | 244° |
| 2026-04-23 01:17 | 35.27578 | -113.08256 | 33929 ft | 390 kts | 244° |
| 2026-04-23 01:18 | 35.24842 | -113.14009 | 33929 ft | 390 kts | 244° |
| 2026-04-23 01:18 | 35.22112 | -113.19742 | 33925 ft | 390 kts | 244° |
| 2026-04-23 01:19 | 35.19403 | -113.25439 | 33917 ft | 389 kts | 244° |
| 2026-04-23 01:19 | 35.16676 | -113.31164 | 33924 ft | 389 kts | 244° |
| 2026-04-23 01:20 | 35.13945 | -113.36890 | 33901 ft | 389 kts | 244° |
| 2026-04-23 01:20 | 35.11216 | -113.42601 | 33903 ft | 389 kts | 244° |
| 2026-04-23 01:21 | 35.08504 | -113.48270 | 33900 ft | 389 kts | 244° |
| 2026-04-23 01:21 | 35.05772 | -113.53968 | 33907 ft | 389 kts | 244° |
| 2026-04-23 01:22 | 35.03030 | -113.59679 | 33908 ft | 389 kts | 244° |
| 2026-04-23 01:22 | 35.00285 | -113.65388 | 33901 ft | 390 kts | 244° |
| 2026-04-23 01:23 | 34.97556 | -113.71052 | 33907 ft | 389 kts | 244° |
| 2026-04-23 01:23 | 34.94806 | -113.76752 | 33901 ft | 389 kts | 244° |
| 2026-04-23 01:24 | 34.92058 | -113.82439 | 33905 ft | 388 kts | 244° |
| 2026-04-23 01:24 | 34.89311 | -113.88118 | 33897 ft | 389 kts | 244° |
| 2026-04-23 01:25 | 34.86572 | -113.93762 | 33892 ft | 391 kts | 244° |
| 2026-04-23 01:25 | 34.83696 | -113.99400 | 33884 ft | 393 kts | 242° |
| 2026-04-23 01:26 | 34.80766 | -114.05029 | 33895 ft | 394 kts | 242° |
| 2026-04-23 01:26 | 34.77842 | -114.10666 | 33897 ft | 394 kts | 243° |
| 2026-04-23 01:27 | 34.74923 | -114.16303 | 33899 ft | 394 kts | 243° |
| 2026-04-23 01:27 | 34.72006 | -114.21934 | 33905 ft | 393 kts | 242° |
| 2026-04-23 01:28 | 34.69087 | -114.27560 | 33910 ft | 392 kts | 242° |
| 2026-04-23 01:28 | 34.66177 | -114.33161 | 33915 ft | 392 kts | 242° |
| 2026-04-23 01:29 | 34.63271 | -114.38699 | 33914 ft | 393 kts | 239° |
| 2026-04-23 01:29 | 34.59724 | -114.43808 | 33912 ft | 396 kts | 234° |
| 2026-04-23 01:30 | 34.56025 | -114.48767 | 33908 ft | 395 kts | 234° |
| 2026-04-23 01:30 | 34.52385 | -114.53714 | 33906 ft | 392 kts | 234° |
| 2026-04-23 01:31 | 34.48776 | -114.58674 | 33898 ft | 392 kts | 234° |
| 2026-04-23 01:31 | 34.45165 | -114.63644 | 33904 ft | 393 kts | 234° |
| 2026-04-23 01:32 | 34.41564 | -114.68594 | 33899 ft | 394 kts | 234° |
| 2026-04-23 01:32 | 34.37923 | -114.73590 | 33901 ft | 395 kts | 234° |
| 2026-04-23 01:33 | 34.34276 | -114.78584 | 33904 ft | 396 kts | 234° |
| 2026-04-23 01:33 | 34.30614 | -114.83589 | 33899 ft | 397 kts | 234° |
| 2026-04-23 01:34 | 34.26970 | -114.88564 | 33910 ft | 398 kts | 234° |
| 2026-04-23 01:34 | 34.23290 | -114.93583 | 33909 ft | 399 kts | 234° |
| 2026-04-23 01:35 | 34.19606 | -114.98600 | 33921 ft | 399 kts | 234° |
| 2026-04-23 01:35 | 34.15917 | -115.03618 | 33916 ft | 399 kts | 234° |
| 2026-04-23 01:36 | 34.12228 | -115.08628 | 33921 ft | 398 kts | 234° |
| 2026-04-23 01:36 | 34.08543 | -115.13625 | 33915 ft | 398 kts | 234° |
| 2026-04-23 01:37 | 34.04872 | -115.18599 | 33925 ft | 397 kts | 234° |
| 2026-04-23 01:37 | 34.01216 | -115.23546 | 33936 ft | 397 kts | 234° |
| 2026-04-23 01:38 | 33.97537 | -115.28517 | 33926 ft | 397 kts | 234° |
| 2026-04-23 01:38 | 33.93872 | -115.33483 | 33935 ft | 396 kts | 234° |
| 2026-04-23 01:39 | 33.90835 | -115.37595 | 33939 ft | 396 kts | 234° |
| 2026-04-23 01:39 | 33.87177 | -115.42545 | 33935 ft | 395 kts | 235° |
| 2026-04-23 01:40 | 33.83516 | -115.47489 | 33944 ft | 395 kts | 235° |
| 2026-04-23 01:40 | 33.79860 | -115.52418 | 33934 ft | 393 kts | 235° |
| 2026-04-23 01:41 | 33.76220 | -115.57324 | 33946 ft | 393 kts | 235° |
| 2026-04-23 01:41 | 33.72564 | -115.62247 | 33330 ft | 401 kts | 235° |
| 2026-04-23 01:42 | 33.70698 | -115.64754 | 32632 ft | 402 kts | 234° |
| 2026-04-23 01:42 | 33.68836 | -115.67222 | 32102 ft | 396 kts | 234° |
| 2026-04-23 01:42 | 33.66990 | -115.69655 | 31512 ft | 391 kts | 233° |
| 2026-04-23 01:42 | 33.65166 | -115.72061 | 30941 ft | 388 kts | 233° |
| 2026-04-23 01:43 | 33.63355 | -115.74450 | 30384 ft | 385 kts | 233° |
| 2026-04-23 01:43 | 33.61605 | -115.76818 | 29783 ft | 381 kts | 236° |
| 2026-04-23 01:43 | 33.60045 | -115.79358 | 29148 ft | 375 kts | 240° |
| 2026-04-23 01:43 | 33.58599 | -115.81946 | 28589 ft | 371 kts | 241° |
| 2026-04-23 01:44 | 33.57178 | -115.84522 | 28032 ft | 368 kts | 240° |
| 2026-04-23 01:44 | 33.55761 | -115.87052 | 27513 ft | 364 kts | 240° |
| 2026-04-23 01:44 | 33.54332 | -115.89555 | 26973 ft | 361 kts | 240° |
| 2026-04-23 01:44 | 33.52904 | -115.92029 | 26452 ft | 359 kts | 239° |
| 2026-04-23 01:45 | 33.51485 | -115.94479 | 25941 ft | 356 kts | 239° |
| 2026-04-23 01:45 | 33.50078 | -115.96903 | 25514 ft | 352 kts | 239° |
| 2026-04-23 01:45 | 33.48682 | -115.99310 | 25088 ft | 351 kts | 239° |
| 2026-04-23 01:45 | 33.47282 | -116.01727 | 24670 ft | 355 kts | 239° |
| 2026-04-23 01:46 | 33.45865 | -116.04172 | 24210 ft | 358 kts | 239° |
| 2026-04-23 01:46 | 33.44462 | -116.06589 | 23778 ft | 357 kts | 239° |
| 2026-04-23 01:46 | 33.43046 | -116.09026 | 23304 ft | 355 kts | 239° |
| 2026-04-23 01:46 | 33.41640 | -116.11445 | 22816 ft | 352 kts | 239° |
| 2026-04-23 01:47 | 33.40246 | -116.13841 | 22369 ft | 349 kts | 239° |
| 2026-04-23 01:47 | 33.38864 | -116.16219 | 21959 ft | 347 kts | 239° |
| 2026-04-23 01:47 | 33.37487 | -116.18585 | 21532 ft | 346 kts | 239° |
| 2026-04-23 01:47 | 33.36111 | -116.20947 | 21084 ft | 345 kts | 239° |
| 2026-04-23 01:48 | 33.34735 | -116.23286 | 20686 ft | 344 kts | 237° |
| 2026-04-23 01:48 | 33.33028 | -116.25323 | 20259 ft | 351 kts | 221° |
| 2026-04-23 01:48 | 33.30905 | -116.26812 | 19860 ft | 355 kts | 213° |
| 2026-04-23 01:48 | 33.28686 | -116.28113 | 19430 ft | 356 kts | 212° |
| 2026-04-23 01:49 | 33.26450 | -116.29380 | 19010 ft | 355 kts | 212° |
| 2026-04-23 01:49 | 33.24216 | -116.30647 | 18576 ft | 355 kts | 212° |
| 2026-04-23 01:49 | 33.21992 | -116.31920 | 18113 ft | 354 kts | 212° |
| 2026-04-23 01:49 | 33.19788 | -116.33192 | 17645 ft | 350 kts | 212° |
| 2026-04-23 01:50 | 33.17608 | -116.34458 | 17199 ft | 346 kts | 212° |
| 2026-04-23 01:50 | 33.15456 | -116.35713 | 16771 ft | 342 kts | 212° |
| 2026-04-23 01:50 | 33.13326 | -116.36957 | 16362 ft | 339 kts | 212° |
| 2026-04-23 01:50 | 33.11217 | -116.38190 | 15947 ft | 337 kts | 212° |
| 2026-04-23 01:51 | 33.09116 | -116.39419 | 15557 ft | 336 kts | 212° |
| 2026-04-23 01:51 | 33.07008 | -116.40653 | 15161 ft | 338 kts | 212° |
| 2026-04-23 01:51 | 33.04914 | -116.41876 | 14756 ft | 341 kts | 212° |
| 2026-04-23 01:51 | 33.02779 | -116.43120 | 14343 ft | 341 kts | 212° |
| 2026-04-23 01:52 | 33.00659 | -116.44381 | 13922 ft | 337 kts | 216° |
| 2026-04-23 01:52 | 32.98790 | -116.46000 | 13488 ft | 328 kts | 225° |
| 2026-04-23 01:52 | 32.97080 | -116.47765 | 13075 ft | 324 kts | 226° |
| 2026-04-23 01:52 | 32.95396 | -116.49528 | 12665 ft | 320 kts | 226° |
| 2026-04-23 01:53 | 32.93728 | -116.51259 | 12299 ft | 317 kts | 225° |
| 2026-04-23 01:53 | 32.92065 | -116.52965 | 11913 ft | 314 kts | 225° |
| 2026-04-23 01:53 | 32.90411 | -116.54647 | 11541 ft | 311 kts | 225° |
| 2026-04-23 01:53 | 32.88763 | -116.56314 | 11162 ft | 309 kts | 224° |
| 2026-04-23 01:54 | 32.87124 | -116.57966 | 10781 ft | 308 kts | 224° |
| 2026-04-23 01:54 | 32.85497 | -116.59602 | 10433 ft | 305 kts | 224° |
| 2026-04-23 01:54 | 32.83880 | -116.61231 | 10060 ft | 303 kts | 224° |
| 2026-04-23 01:54 | 32.82303 | -116.62817 | 10036 ft | 289 kts | 224° |
| 2026-04-23 01:55 | 32.80814 | -116.64313 | 9995 ft | 275 kts | 224° |
| 2026-04-23 01:55 | 32.79373 | -116.65761 | 9851 ft | 266 kts | 224° |
| 2026-04-23 01:55 | 32.77965 | -116.67181 | 9527 ft | 264 kts | 225° |
| 2026-04-23 01:55 | 32.76867 | -116.68803 | 9450 ft | 245 kts | 244° |
| 2026-04-23 01:56 | 32.76068 | -116.70516 | 9353 ft | 229 kts | 244° |
| 2026-04-23 01:56 | 32.75307 | -116.72144 | 9042 ft | 223 kts | 244° |
| 2026-04-23 01:56 | 32.74554 | -116.73748 | 8627 ft | 222 kts | 244° |
| 2026-04-23 01:56 | 32.73799 | -116.75355 | 8182 ft | 222 kts | 244° |
| 2026-04-23 01:57 | 32.73045 | -116.76955 | 7757 ft | 222 kts | 244° |
| 2026-04-23 01:57 | 32.72288 | -116.78556 | 7308 ft | 222 kts | 243° |
| 2026-04-23 01:57 | 32.71531 | -116.80152 | 6928 ft | 221 kts | 243° |
| 2026-04-23 01:57 | 32.70779 | -116.81744 | 6495 ft | 220 kts | 245° |
| 2026-04-23 01:58 | 32.70185 | -116.83416 | 5996 ft | 221 kts | 253° |
| 2026-04-23 01:58 | 32.69670 | -116.85117 | 5646 ft | 217 kts | 253° |
| 2026-04-23 01:58 | 32.69163 | -116.86786 | 5362 ft | 213 kts | 253° |
| 2026-04-23 01:58 | 32.68664 | -116.88443 | 5101 ft | 214 kts | 253° |
| 2026-04-23 01:59 | 32.68181 | -116.90099 | 4889 ft | 216 kts | 253° |
| 2026-04-23 01:59 | 32.67685 | -116.91798 | 4628 ft | 219 kts | 253° |
| 2026-04-23 01:59 | 32.67311 | -116.93553 | 4266 ft | 218 kts | 272° |
| 2026-04-23 01:59 | 32.67533 | -116.95306 | 4009 ft | 213 kts | 286° |
| 2026-04-23 02:00 | 32.67922 | -116.96777 | 3823 ft | 211 kts | 289° |
| 2026-04-23 02:00 | 32.68372 | -116.98438 | 3558 ft | 212 kts | 288° |
| 2026-04-23 02:00 | 32.68795 | -117.00114 | 3301 ft | 211 kts | 287° |
| 2026-04-23 02:00 | 32.69205 | -117.01794 | 3049 ft | 210 kts | 288° |
| 2026-04-23 02:01 | 32.69604 | -117.03437 | 2939 ft | 208 kts | 288° |
| 2026-04-23 02:01 | 32.70004 | -117.05095 | 2637 ft | 208 kts | 287° |
| 2026-04-23 02:01 | 32.70394 | -117.06716 | 2323 ft | 198 kts | 287° |
| 2026-04-23 02:01 | 32.70761 | -117.08240 | 2040 ft | 186 kts | 287° |
| 2026-04-23 02:02 | 32.71107 | -117.09668 | 1754 ft | 174 kts | 287° |
| 2026-04-23 02:02 | 32.71430 | -117.11005 | 1487 ft | 162 kts | 287° |
| 2026-04-23 02:02 | 32.71726 | -117.12232 | 1285 ft | 147 kts | 287° |
| 2026-04-23 02:02 | 32.71997 | -117.13353 | 1048 ft | 136 kts | 288° |
| 2026-04-23 02:03 | 32.72255 | -117.14420 | 832 ft | 137 kts | 288° |
| 2026-04-23 02:03 | 32.72521 | -117.15517 | 609 ft | 138 kts | 289° |
| 2026-04-23 02:03 | 32.72787 | -117.16613 | 395 ft | 139 kts | 288° |
| 2026-04-23 02:03 | 32.73052 | -117.17701 | 138 ft | 136 kts | 288° |
| 2026-04-23 02:04 | 32.73304 | -117.18749 | 26 ft | 123 kts | 286° |
| 2026-04-23 02:04 | 32.73496 | -117.19542 | 24 ft | 72 kts | 286° |
| 2026-04-23 02:04 | 32.73599 | -117.19970 | 23 ft | 43 kts | 284° |
| 2026-04-23 02:04 | 32.73588 | -117.20175 | 24 ft | 16 kts | 231° |
| 2026-04-23 02:05 | 32.73567 | -117.20204 | 23 ft | 0 kts | 226° |
| 2026-04-23 02:05 | 32.73555 | -117.20215 | 24 ft | 6 kts | 216° |
| 2026-04-23 02:05 | 32.73516 | -117.20253 | 24 ft | 7 kts | 237° |
| 2026-04-23 02:05 | 32.73513 | -117.20312 | 22 ft | 7 kts | 285° |
| 2026-04-23 02:06 | 32.73526 | -117.20367 | 23 ft | 7 kts | 285° |
| 2026-04-23 02:06 | 32.73538 | -117.20424 | 23 ft | 7 kts | 284° |
| 2026-04-23 02:06 | 32.73536 | -117.20478 | 22 ft | 7 kts | 244° |
| 2026-04-23 02:06 | 32.73495 | -117.20485 | 22 ft | 7 kts | 155° |
| 2026-04-23 02:07 | 32.73464 | -117.20459 | 22 ft | 2 kts | 141° |
| 2026-04-23 02:07 | 32.73461 | -117.20456 | 22 ft | 0 kts | 141° |